KDSM/DSM METAR and TAF weather

Enter ICAO airport designator
Station Type Date Time Source
KDSM METAR 2020/11/27 13:54 UTC NOAA

KDSM 271354Z 29005KT 5SM BR CLR M02/M03 A3020 RMK AO2 SLP236 T10221033


Station Type Date Time Source
KDSM Decoded METAR 2020/11/27 13:54 UTC NOAA

DES MOINES INTERNATIONAL, IA, United States (KDSM) 41-32N 93-40W 295M
Nov 27, 2020 - 08:54 AM EST / 2020.11.27 1354 UTC
Wind: from the WNW (290 degrees) at 6 MPH (5 KT):0
Visibility: 5 mile(s):0
Sky conditions: clear
Weather: mist
Temperature: 28.0 F (-2.2 C)
Windchill: 21 F (-6 C):1
Dew Point: 26.1 F (-3.3 C)
Relative Humidity: 92%
Pressure (altimeter): 30.2 in. Hg (1022 hPa)
ob: KDSM 271354Z 29005KT 5SM BR CLR M02/M03 A3020 RMK AO2 SLP236 T10221033
cycle: 14

Station Type Date Time Source
KDSM TAF 2020/11/27 12:30 UTC NOAA

TAF KDSM 271127Z 2712/2812 31006KT P6SM SKC
TEMPO 2712/2714 5SM BR
FM280100 26004KT P6SM SKC

Example: see airport list